Time;durP1;ratioP1;P1;durP2;ratioP2;P2;SDS_P1;SDS_P2;PMS_P1;PMS_P2;Temp;Humidity;BMP_temperature;BMP_pressure;BME280_temperature;BME280_humidity;BME280_pressure;Samples;Min_cycle;Max_cycle;Signal;HPM_P1;HPM_P2
2024/01/04 00:01:58;;;;;;;0.63;0.63;;;;;;;12.15;100.00;99318.75;5073954;28;20220;-78
2024/01/04 00:04:25;;;;;;;0.80;0.80;;;;;;;12.23;100.00;99311.81;5037922;28;20202;-78
2024/01/04 00:06:52;;;;;;;0.60;0.60;;;;;;;12.27;100.00;99313.50;5070039;28;20643;-78
2024/01/04 00:09:18;;;;;;;0.80;0.80;;;;;;;12.30;100.00;99312.63;5073287;28;20280;-78
2024/01/04 00:11:45;;;;;;;0.68;0.68;;;;;;;12.25;100.00;99315.25;5073451;28;20202;-78
2024/01/04 00:14:12;;;;;;;0.70;0.70;;;;;;;12.20;100.00;99327.38;5073108;28;20206;-78
2024/01/04 00:16:40;;;;;;;0.70;0.70;;;;;;;12.11;100.00;99327.44;5073530;28;20674;-78
2024/01/04 00:19:07;;;;;;;0.60;0.60;;;;;;;12.05;100.00;99326.59;5073339;28;20281;-78
2024/01/04 00:21:33;;;;;;;0.80;0.80;;;;;;;11.90;100.00;99328.34;5072424;28;20202;-78
2024/01/04 00:24:01;;;;;;;0.60;0.60;;;;;;;11.90;100.00;99319.69;5073027;28;20191;-78
2024/01/04 00:26:28;;;;;;;0.77;0.77;;;;;;;11.87;100.00;99328.38;5073076;28;20195;-78
2024/01/04 00:28:54;;;;;;;0.65;0.65;;;;;;;11.67;100.00;99308.44;5073256;28;20222;-78
2024/01/04 00:31:21;;;;;;;0.70;0.70;;;;;;;11.68;100.00;99325.75;5073218;28;20203;-78
2024/01/04 00:33:49;;;;;;;0.82;0.82;;;;;;;11.50;100.00;99315.41;5065196;28;20210;-77
2024/01/04 00:36:16;;;;;;;0.70;0.70;;;;;;;11.54;100.00;99330.97;5037279;28;20588;-78
2024/01/04 00:38:43;;;;;;;0.70;0.70;;;;;;;11.29;100.00;99296.41;5072564;28;20589;-78
2024/01/04 00:41:10;;;;;;;1.27;1.27;;;;;;;11.41;100.00;99327.50;5072624;28;20610;-78
2024/01/04 00:43:38;;;;;;;0.70;0.70;;;;;;;11.45;100.00;99339.63;5072526;28;20195;-78
2024/01/04 00:46:04;;;;;;;0.70;0.70;;;;;;;11.41;100.00;99340.50;5072097;28;20608;-78
2024/01/04 00:48:31;;;;;;;0.70;0.70;;;;;;;11.35;100.00;99332.72;5071801;28;20222;-78
2024/01/04 00:51:01;;;;;;;0.90;0.90;;;;;;;11.34;100.00;99332.72;5071829;28;20194;-78
2024/01/04 00:53:28;;;;;;;1.13;1.13;;;;;;;11.34;100.00;99335.34;5053596;28;20203;-78
2024/01/04 00:55:54;;;;;;;0.70;0.70;;;;;;;11.38;100.00;99332.72;5072180;28;20198;-77
2024/01/04 00:58:21;;;;;;;0.80;0.80;;;;;;;11.21;100.00;99318.88;5072220;28;20210;-78
2024/01/04 01:00:48;;;;;;;0.90;0.90;;;;;;;11.30;100.00;99342.25;5072285;28;20202;-77
2024/01/04 01:03:15;;;;;;;0.70;0.70;;;;;;;11.17;100.00;99321.47;5072190;28;20203;-77
2024/01/04 01:05:42;;;;;;;0.60;0.60;;;;;;;11.23;100.00;99337.94;5071717;28;20199;-77
2024/01/04 01:08:10;;;;;;;0.82;0.82;;;;;;;11.32;100.00;99337.91;5051866;28;20234;-77
2024/01/04 01:10:37;;;;;;;0.70;0.70;;;;;;;11.25;100.00;99331.00;5026880;28;20203;-77
2024/01/04 01:13:04;;;;;;;0.70;0.70;;;;;;;11.32;100.00;99337.03;5071785;28;20199;-78
2024/01/04 01:15:31;;;;;;;0.60;0.60;;;;;;;11.25;100.00;99340.50;5052863;28;20203;-78
2024/01/04 01:18:00;;;;;;;0.70;0.70;;;;;;;11.27;100.00;99339.63;5072357;28;20210;-78
2024/01/04 01:20:27;;;;;;;0.70;0.70;;;;;;;11.33;100.00;99338.78;5053747;28;20260;-78
2024/01/04 01:22:54;;;;;;;1.17;1.17;;;;;;;11.28;100.00;99341.38;5071968;28;20195;-78
2024/01/04 01:25:22;;;;;;;0.90;0.90;;;;;;;11.22;100.00;99309.38;5071985;28;20199;-78
2024/01/04 01:27:49;;;;;;;0.73;0.73;;;;;;;11.48;100.00;99343.09;5071875;28;20226;-78
2024/01/04 01:30:16;;;;;;;0.80;0.80;;;;;;;11.50;100.00;99343.94;5071383;28;20210;-78
2024/01/04 01:32:42;;;;;;;0.80;0.80;;;;;;;11.48;100.00;99328.41;5071693;28;20199;-78
2024/01/04 01:35:09;;;;;;;0.60;0.60;;;;;;;11.69;100.00;99340.50;5071865;28;20227;-78
2024/01/04 01:37:37;;;;;;;0.70;0.70;;;;;;;11.62;100.00;99341.34;5071474;28;20618;-78
2024/01/04 01:40:04;;;;;;;0.63;0.63;;;;;;;11.31;100.00;99278.22;5071686;28;20195;-78
2024/01/04 01:42:32;;;;;;;0.70;0.70;;;;;;;11.62;100.00;99334.44;5071180;28;20195;-78
2024/01/04 01:45:00;;;;;;;0.60;0.60;;;;;;;11.57;100.00;99332.69;5071702;28;20650;-78
2024/01/04 01:47:27;;;;;;;0.68;0.68;;;;;;;11.45;100.00;99307.59;5052707;28;20203;-78
2024/01/04 01:49:54;;;;;;;0.98;0.98;;;;;;;11.59;100.00;99330.97;5071744;28;20194;-78
2024/01/04 01:52:22;;;;;;;0.60;0.60;;;;;;;11.43;100.00;99310.22;5071292;28;20214;-78
2024/01/04 01:54:49;;;;;;;0.70;0.70;;;;;;;11.51;100.00;99336.19;5071403;28;20563;-78
2024/01/04 01:57:17;;;;;;;0.50;0.50;;;;;;;11.37;100.00;99312.84;5071117;28;20211;-77
2024/01/04 01:59:46;;;;;;;1.75;1.17;;;;;;;11.49;100.00;99324.03;5052662;28;20199;-77
2024/01/04 02:02:13;;;;;;;0.60;0.60;;;;;;;11.53;100.00;99333.56;5051468;28;20613;-77
2024/01/04 02:04:41;;;;;;;0.60;0.60;;;;;;;11.30;100.00;99285.16;5069178;28;20209;-78
2024/01/04 02:07:08;;;;;;;10.13;0.90;;;;;;;11.55;100.00;99324.06;5071361;28;20195;-78
2024/01/04 02:09:35;;;;;;;0.70;0.70;;;;;;;11.59;100.00;99328.38;5070879;28;20352;-78
2024/01/04 02:12:05;;;;;;;0.60;0.60;;;;;;;11.63;100.00;99320.56;5071318;28;20209;-78
2024/01/04 02:14:32;;;;;;;0.70;0.70;;;;;;;11.70;100.00;99330.06;5071184;28;20276;-78
2024/01/04 02:17:01;;;;;;;0.80;0.80;;;;;;;11.75;100.00;99333.56;5070919;28;20213;-78
2024/01/04 02:19:28;;;;;;;0.70;0.70;;;;;;;11.76;100.00;99339.63;5071502;28;20207;-78
2024/01/04 02:21:55;;;;;;;0.70;0.70;;;;;;;11.66;100.00;99311.94;5070974;28;20202;-78
2024/01/04 02:24:23;;;;;;;0.80;0.80;;;;;;;11.73;100.00;99318.88;5070797;28;20277;-78
2024/01/04 02:26:50;;;;;;;0.60;0.60;;;;;;;11.71;100.00;99321.47;5070697;28;20198;-78
2024/01/04 02:29:17;;;;;;;5.10;0.90;;;;;;;11.72;100.00;99317.13;5070520;28;20218;-78
2024/01/04 02:31:45;;;;;;;0.60;0.60;;;;;;;11.73;100.00;99318.88;5070872;28;20214;-78
2024/01/04 02:34:12;;;;;;;0.70;0.70;;;;;;;11.69;100.00;99315.38;5070598;28;20227;-78
2024/01/04 02:36:38;;;;;;;0.90;0.90;;;;;;;11.71;100.00;99308.47;5070710;28;20203;-78
2024/01/04 02:39:05;;;;;;;0.73;0.73;;;;;;;11.71;100.00;99321.47;5071178;28;20207;-78
2024/01/04 02:41:33;;;;;;;0.70;0.70;;;;;;;11.76;100.00;99318.88;5070499;28;20566;-78
2024/01/04 02:44:00;;;;;;;0.70;0.70;;;;;;;11.77;100.00;99321.44;5070572;28;20206;-78
2024/01/04 02:46:27;;;;;;;0.60;0.60;;;;;;;11.76;100.00;99321.47;5070821;28;20332;-78
2024/01/04 02:48:54;;;;;;;0.70;0.70;;;;;;;11.80;100.00;99323.19;5070952;28;20241;-78
2024/01/04 02:51:21;;;;;;;0.70;0.70;;;;;;;11.86;100.00;99323.16;5070336;28;20226;-77
2024/01/04 02:53:47;;;;;;;0.70;0.70;;;;;;;11.89;100.00;99323.16;5070717;28;20214;-77
2024/01/04 02:56:14;;;;;;;0.63;0.63;;;;;;;11.99;100.00;99316.19;5070769;28;20308;-77
2024/01/04 02:58:45;;;;;;;0.70;0.70;;;;;;;11.78;100.00;99271.25;5070724;28;20203;-76
2024/01/04 03:01:11;;;;;;;0.70;0.70;;;;;;;11.99;100.00;99319.66;5070280;28;20203;-76
2024/01/04 03:03:38;;;;;;;0.70;0.70;;;;;;;11.66;100.00;99250.50;5069666;28;20210;-78
2024/01/04 03:06:05;;;;;;;1.05;1.05;;;;;;;11.96;100.00;99313.59;5070365;28;20285;-77
2024/01/04 03:08:32;;;;;;;1.90;1.25;;;;;;;11.91;100.00;99308.44;5070258;28;20230;-77
2024/01/04 03:10:59;;;;;;;0.80;0.80;;;;;;;11.85;100.00;99308.44;5069568;28;20203;-78
2024/01/04 03:13:25;;;;;;;21.67;1.42;;;;;;;11.89;100.00;99312.75;5057032;28;20203;-78
2024/01/04 03:15:53;;;;;;;0.80;0.80;;;;;;;11.91;100.00;99293.69;5067411;28;20229;-78
2024/01/04 03:18:20;;;;;;;0.63;0.63;;;;;;;11.80;100.00;99279.03;5069614;28;20221;-77
2024/01/04 03:20:48;;;;;;;0.90;0.90;;;;;;;11.94;100.00;99298.03;5068801;28;20195;-77
2024/01/04 03:23:14;;;;;;;2.08;1.98;;;;;;;11.95;100.00;99294.56;5070472;28;20214;-77
2024/01/04 03:25:41;;;;;;;1.08;1.08;;;;;;;11.99;99.30;99296.28;5070290;28;20202;-78
2024/01/04 03:28:08;;;;;;;0.60;0.60;;;;;;;11.95;99.40;99297.16;5069882;28;20674;-79
2024/01/04 03:30:35;;;;;;;0.60;0.60;;;;;;;11.79;99.81;99285.97;5051124;28;20527;-79
2024/01/04 03:33:03;;;;;;;1.13;1.13;;;;;;;11.92;99.73;99299.75;5043376;28;20206;-78
2024/01/04 03:35:30;;;;;;;0.80;0.80;;;;;;;11.87;99.53;99301.53;5049852;28;20228;-77
2024/01/04 03:37:57;;;;;;;0.70;0.70;;;;;;;11.94;98.70;99303.25;5068047;28;20191;-78
2024/01/04 03:40:23;;;;;;;0.82;0.82;;;;;;;11.77;97.71;99273.84;5069913;28;20218;-77
2024/01/04 03:42:50;;;;;;;0.70;0.70;;;;;;;11.78;97.20;99289.41;5069733;28;20558;-77
2024/01/04 03:45:17;;;;;;;0.70;0.70;;;;;;;11.96;97.33;99316.19;5069999;28;20664;-77
2024/01/04 03:47:44;;;;;;;0.70;0.70;;;;;;;11.97;97.23;99299.75;5069720;28;20205;-77
2024/01/04 03:50:12;;;;;;;0.70;0.70;;;;;;;11.73;96.88;99261.75;5070072;28;20234;-77
2024/01/04 03:52:39;;;;;;;0.60;0.60;;;;;;;11.76;98.13;99303.28;5070066;28;20203;-78
2024/01/04 03:55:06;;;;;;;0.70;0.70;;;;;;;11.76;98.08;99308.47;5070417;28;20199;-79
2024/01/04 03:57:33;;;;;;;0.60;0.60;;;;;;;11.57;98.97;99312.78;5073423;28;20202;-77
2024/01/04 04:00:01;;;;;;;0.60;0.60;;;;;;;11.49;100.00;99303.28;5073020;28;20533;-79
2024/01/04 04:02:28;;;;;;;0.65;0.65;;;;;;;11.28;100.00;99278.22;5073592;28;20203;-78
2024/01/04 04:04:56;;;;;;;0.60;0.60;;;;;;;11.35;100.00;99305.88;5073858;28;20187;-76
2024/01/04 04:07:24;;;;;;;0.77;0.77;;;;;;;11.38;100.00;99303.28;5073514;28;20260;-78
2024/01/04 04:09:51;;;;;;;2.45;1.42;;;;;;;11.19;100.00;99311.97;5073212;28;20234;-77
2024/01/04 04:12:17;;;;;;;0.73;0.73;;;;;;;11.21;100.00;99310.22;5073444;28;20202;-78
2024/01/04 04:14:44;;;;;;;4.03;1.77;;;;;;;11.13;100.00;99317.16;5073707;28;20203;-79
2024/01/04 04:17:11;;;;;;;0.60;0.60;;;;;;;10.86;100.00;99266.13;5073548;28;20205;-78
2024/01/04 04:19:38;;;;;;;0.60;0.60;;;;;;;11.16;100.00;99315.44;5073017;28;20198;-79
2024/01/04 04:22:04;;;;;;;0.70;0.70;;;;;;;11.13;100.00;99320.59;5037824;28;20275;-78
2024/01/04 04:24:33;;;;;;;0.90;0.90;;;;;;;11.03;100.00;99312.81;5073399;28;20202;-78
2024/01/04 04:26:59;;;;;;;0.93;0.93;;;;;;;10.96;100.00;99311.94;5072871;28;20667;-78
2024/01/04 04:29:26;;;;;;;2.80;1.00;;;;;;;10.80;100.00;99307.63;5073192;28;20223;-78
2024/01/04 04:31:55;;;;;;;0.70;0.70;;;;;;;10.74;100.00;99300.69;5054508;28;20202;-78
2024/01/04 04:34:22;;;;;;;0.68;0.68;;;;;;;10.58;100.00;99282.50;5072409;28;20269;-78
2024/01/04 04:36:49;;;;;;;0.70;0.70;;;;;;;10.81;100.00;99310.19;5044121;28;20260;-78
2024/01/04 04:39:16;;;;;;;2.75;1.25;;;;;;;10.76;100.00;99314.53;5060932;28;20744;-79
2024/01/04 04:41:44;;;;;;;0.70;0.70;;;;;;;10.79;100.00;99306.75;5072892;28;20210;-78
2024/01/04 04:44:10;;;;;;;0.70;0.70;;;;;;;10.72;100.00;99301.53;5037067;28;20211;-78
2024/01/04 04:46:37;;;;;;;0.70;0.70;;;;;;;10.81;100.00;99311.91;5072928;28;20698;-79
2024/01/04 04:49:04;;;;;;;0.93;0.93;;;;;;;10.80;100.00;99294.66;5054160;28;20687;-79
2024/01/04 04:51:31;;;;;;;0.60;0.60;;;;;;;10.75;100.00;99291.16;5072300;28;20203;-79
2024/01/04 04:53:58;;;;;;;0.80;0.80;;;;;;;10.73;100.00;99287.72;5072012;28;20206;-76
2024/01/04 04:56:25;;;;;;;0.70;0.70;;;;;;;10.62;100.00;99250.56;5071603;28;20202;-76
2024/01/04 04:58:53;;;;;;;0.70;0.70;;;;;;;10.91;100.00;99292.94;5071651;28;20218;-77
2024/01/04 05:01:20;;;;;;;0.70;0.70;;;;;;;10.98;100.00;99288.63;5071384;28;20195;-77
2024/01/04 05:03:47;;;;;;;0.70;0.70;;;;;;;11.11;99.36;99280.84;5072189;28;20205;-77
2024/01/04 05:06:13;;;;;;;1.60;1.60;;;;;;;11.29;97.04;99280.81;5071613;28;20198;-77
2024/01/04 05:08:40;;;;;;;1.55;1.45;;;;;;;11.34;97.10;99275.63;5071690;28;20199;-77
2024/01/04 05:11:07;;;;;;;0.60;0.60;;;;;;;11.48;95.56;99279.09;5069694;28;20213;-77
2024/01/04 05:13:34;;;;;;;0.80;0.80;;;;;;;11.56;94.19;99273.88;5071530;28;20206;-77
2024/01/04 05:16:02;;;;;;;0.70;0.70;;;;;;;11.63;92.65;99260.03;5071307;28;20203;-77
2024/01/04 05:18:29;;;;;;;0.70;0.70;;;;;;;11.43;92.57;99227.16;5072225;28;20210;-77
2024/01/04 05:20:58;;;;;;;0.70;0.70;;;;;;;11.77;90.27;99259.13;5072061;28;20218;-77
2024/01/04 05:23:25;;;;;;;1.35;1.25;;;;;;;11.93;89.47;99280.72;5071988;28;20306;-78
2024/01/04 05:25:51;;;;;;;0.68;0.68;;;;;;;11.93;89.57;99281.59;5071842;28;20206;-77
2024/01/04 05:28:18;;;;;;;0.75;0.75;;;;;;;11.97;89.08;99282.44;5072446;28;20205;-77
2024/01/04 05:30:45;;;;;;;0.80;0.80;;;;;;;11.89;89.26;99289.38;5071859;28;20219;-78
2024/01/04 05:33:13;;;;;;;0.70;0.70;;;;;;;11.99;89.38;99279.81;5071453;28;20260;-80
2024/01/04 05:35:40;;;;;;;0.77;0.77;;;;;;;12.03;87.99;99276.34;5072523;28;20237;-77
2024/01/04 05:38:07;;;;;;;0.73;0.73;;;;;;;12.03;87.36;99265.94;5072027;28;20217;-79
2024/01/04 05:40:33;;;;;;;0.93;0.93;;;;;;;12.04;87.01;99252.97;5071666;28;20203;-79
2024/01/04 05:43:00;;;;;;;0.93;0.93;;;;;;;12.15;86.90;99266.78;5071857;28;20203;-78
2024/01/04 05:45:27;;;;;;;0.70;0.70;;;;;;;12.07;86.71;99242.56;5071869;28;20670;-79
2024/01/04 05:47:54;;;;;;;0.70;0.70;;;;;;;12.28;86.44;99264.97;5069257;28;20198;-79
2024/01/04 05:50:22;;;;;;;0.70;0.70;;;;;;;12.15;85.93;99233.00;5051938;28;20323;-79
2024/01/04 05:52:49;;;;;;;0.63;0.63;;;;;;;12.39;85.96;99258.84;5070501;28;20569;-78
2024/01/04 05:55:15;;;;;;;0.75;0.75;;;;;;;12.39;85.69;99255.38;5070982;28;20195;-78
2024/01/04 05:57:43;;;;;;;0.70;0.70;;;;;;;12.38;83.95;99238.91;5071058;28;20207;-78
2024/01/04 06:00:11;;;;;;;0.80;0.80;;;;;;;12.49;83.80;99251.84;5070407;28;20240;-76
2024/01/04 06:02:38;;;;;;;0.70;0.70;;;;;;;12.49;83.34;99259.66;5069647;28;20206;-76
2024/01/04 06:05:06;;;;;;;0.60;0.60;;;;;;;12.63;82.78;99273.44;5070725;28;20210;-82
2024/01/04 06:07:34;;;;;;;0.60;0.60;;;;;;;12.64;83.98;99262.16;5069534;28;20202;-78
2024/01/04 06:10:00;;;;;;;2.15;1.35;;;;;;;12.60;82.80;99264.78;5070103;28;20229;-78
2024/01/04 06:12:27;;;;;;;0.60;0.60;;;;;;;12.58;83.94;99289.94;5070502;28;20287;-77
2024/01/04 06:14:54;;;;;;;0.80;0.80;;;;;;;12.57;84.92;99293.41;5069508;28;20199;-78
2024/01/04 06:17:21;;;;;;;0.80;0.80;;;;;;;12.46;85.20;99287.41;5069991;28;20203;-80
2024/01/04 06:19:48;;;;;;;0.77;0.77;;;;;;;12.45;85.84;99291.75;5069686;28;20206;-78
2024/01/04 06:22:14;;;;;;;0.80;0.80;;;;;;;12.53;86.61;99297.78;5070316;28;20218;-76
2024/01/04 06:24:43;;;;;;;0.60;0.60;;;;;;;12.41;84.48;99282.25;5070439;28;20202;-76
2024/01/04 06:27:09;;;;;;;0.80;0.80;;;;;;;12.46;84.28;99277.88;5070796;28;20650;-81
2024/01/04 06:29:36;;;;;;;0.70;0.70;;;;;;;12.64;84.28;99308.09;5070441;28;20566;-79
2024/01/04 06:32:03;;;;;;;2.28;0.95;;;;;;;12.64;83.51;99302.91;5070847;28;20655;-79
2024/01/04 06:34:30;;;;;;;0.60;0.60;;;;;;;12.72;83.56;99303.72;5070638;28;20239;-75
2024/01/04 06:36:57;;;;;;;0.93;0.93;;;;;;;12.68;82.33;99286.41;5070750;28;20363;-76
2024/01/04 06:39:26;;;;;;;0.70;0.70;;;;;;;12.77;81.67;99300.22;5070825;28;20218;-76
2024/01/04 06:41:54;;;;;;;0.98;0.98;;;;;;;12.99;81.41;99303.53;5070228;28;20199;-77
2024/01/04 06:44:21;;;;;;;0.60;0.60;;;;;;;12.90;81.46;99306.22;5068567;28;20195;-77
2024/01/04 06:46:47;;;;;;;0.60;0.60;;;;;;;12.90;81.35;99307.09;5067881;28;20221;-76
2024/01/04 06:49:14;;;;;;;1.25;1.17;;;;;;;12.90;81.46;99290.63;5070732;28;20649;-74
2024/01/04 06:51:41;;;;;;;0.80;0.80;;;;;;;12.41;81.26;99207.69;5071099;28;20217;-75
2024/01/04 06:54:08;;;;;;;0.90;0.90;;;;;;;13.09;80.53;99294.81;5071277;28;20206;-72
2024/01/04 06:56:34;;;;;;;0.70;0.70;;;;;;;13.10;79.88;99278.34;5068739;28;20209;-76
2024/01/04 06:59:04;;;;;;;1.38;1.25;;;;;;;13.28;82.13;99287.72;5070442;28;20236;-75
2024/01/04 07:01:30;;;;;;;0.70;0.70;;;;;;;13.26;79.44;99282.56;5070533;28;20207;-75
2024/01/04 07:03:57;;;;;;;1.95;1.77;;;;;;;13.33;78.55;99284.22;5051652;28;20202;-81
2024/01/04 07:06:24;;;;;;;0.60;0.60;;;;;;;13.40;78.90;99288.50;5035326;28;20286;-76
2024/01/04 07:08:51;;;;;;;1.40;1.35;;;;;;;13.38;78.86;99279.81;5034899;28;20207;-77
2024/01/04 07:11:18;;;;;;;0.88;0.88;;;;;;;13.49;78.30;99284.94;5070328;28;20234;-76
2024/01/04 07:13:45;;;;;;;0.70;0.70;;;;;;;13.50;77.46;99277.97;5070214;28;20207;-77
2024/01/04 07:16:13;;;;;;;0.80;0.80;;;;;;;13.55;77.22;99271.00;5069813;28;20260;-78
2024/01/04 07:18:40;;;;;;;0.70;0.70;;;;;;;13.55;76.77;99266.66;5051765;28;20198;-77
2024/01/04 07:21:06;;;;;;;0.70;0.70;;;;;;;13.65;76.62;99283.03;5032587;28;20203;-76
2024/01/04 07:23:33;;;;;;;0.93;0.93;;;;;;;13.53;76.27;99254.50;5069700;28;20207;-76
2024/01/04 07:26:00;;;;;;;0.95;0.95;;;;;;;13.64;76.83;99271.75;5075676;28;20203;-76
2024/01/04 07:28:27;;;;;;;0.77;0.77;;;;;;;13.66;76.94;99263.94;5076778;28;20211;-77
2024/01/04 07:30:54;;;;;;;0.60;0.60;;;;;;;13.54;76.95;99243.22;5043780;28;20230;-77
2024/01/04 07:33:23;;;;;;;0.68;0.68;;;;;;;13.79;76.95;99265.53;5076573;28;20206;-78
2024/01/04 07:35:50;;;;;;;0.90;0.90;;;;;;;13.81;76.61;99268.97;5074259;28;20222;-77
2024/01/04 07:38:16;;;;;;;0.70;0.70;;;;;;;13.91;77.04;99265.41;5075275;28;20191;-77
2024/01/04 07:40:43;;;;;;;0.80;0.80;;;;;;;13.95;75.58;99258.41;5074419;28;20281;-77
2024/01/04 07:43:11;;;;;;;0.70;0.70;;;;;;;13.98;75.24;99250.53;5072807;28;20214;-77
2024/01/04 07:45:38;;;;;;;0.77;0.77;;;;;;;14.09;74.56;99254.72;5076220;28;20203;-80
2024/01/04 07:48:05;;;;;;;0.90;0.90;;;;;;;14.20;74.26;99258.06;5074353;28;20202;-77
2024/01/04 07:50:33;;;;;;;1.00;1.00;;;;;;;14.24;74.79;99258.88;5073756;28;20238;-76
2024/01/04 07:53:00;;;;;;;0.70;0.70;;;;;;;14.09;74.89;99249.50;5074038;28;20214;-76
2024/01/04 07:55:27;;;;;;;0.65;0.65;;;;;;;14.05;75.46;99263.50;5073756;28;20202;-76
2024/01/04 07:57:54;;;;;;;0.60;0.60;;;;;;;14.06;75.70;99264.31;5073700;28;20206;-76
2024/01/04 08:00:22;;;;;;;0.60;0.60;;;;;;;14.12;77.10;99270.34;5074015;28;20217;-77
2024/01/04 08:02:48;;;;;;;4.95;1.15;;;;;;;14.09;76.19;99262.53;5074157;28;20268;-79
2024/01/04 08:05:15;;;;;;;0.70;0.70;;;;;;;14.22;76.33;99256.31;5073541;28;20207;-74
2024/01/04 08:07:44;;;;;;;0.60;0.60;;;;;;;14.27;75.69;99257.09;5073601;28;20304;-77
2024/01/04 08:10:11;;;;;;;0.70;0.70;;;;;;;14.31;75.02;99250.97;5074377;28;20349;-77
2024/01/04 08:12:40;;;;;;;0.80;0.80;;;;;;;14.34;74.10;99258.78;5055095;28;20198;-77
2024/01/04 08:15:08;;;;;;;0.60;0.60;;;;;;;14.34;73.76;99240.53;5073921;28;20667;-77
2024/01/04 08:17:35;;;;;;;0.90;0.90;;;;;;;14.39;73.94;99243.94;5073266;28;20231;-76
2024/01/04 08:20:02;;;;;;;0.60;0.60;;;;;;;14.38;73.76;99231.78;5073137;28;20571;-76
2024/01/04 08:22:28;;;;;;;0.70;0.70;;;;;;;14.57;72.73;99255.88;5072932;28;20198;-76
2024/01/04 08:24:57;;;;;;;0.60;0.60;;;;;;;14.68;72.25;99240.91;5073144;28;20647;-76
2024/01/04 08:27:24;;;;;;;0.90;0.90;;;;;;;14.81;71.30;99236.34;5073625;28;20275;-78
2024/01/04 08:29:51;;;;;;;0.60;0.60;;;;;;;14.81;70.71;99234.63;5062810;28;20191;-78
2024/01/04 08:32:18;;;;;;;0.80;0.80;;;;;;;15.00;70.54;99234.31;5073435;28;20199;-78
2024/01/04 08:34:44;;;;;;;0.60;0.60;;;;;;;14.98;70.87;99226.53;5073128;28;20227;-76
2024/01/04 08:37:13;;;;;;;0.70;0.70;;;;;;;14.93;71.05;99225.72;5072632;28;20203;-78
2024/01/04 08:39:40;;;;;;;1.42;1.33;;;;;;;14.76;71.96;99192.09;5049226;28;20199;-79
2024/01/04 08:42:08;;;;;;;0.70;0.70;;;;;;;14.93;72.21;99209.22;5072367;28;20737;-80
2024/01/04 08:44:35;;;;;;;0.70;0.70;;;;;;;15.01;71.07;99218.66;5072573;28;20214;-77
2024/01/04 08:47:02;;;;;;;0.60;0.60;;;;;;;15.21;70.33;99213.06;5072763;28;20589;-78
2024/01/04 08:49:28;;;;;;;0.70;0.70;;;;;;;15.28;69.59;99212.06;5072989;28;20225;-80
2024/01/04 08:51:56;;;;;;;0.70;0.70;;;;;;;15.39;68.31;99197.94;5073010;28;20223;-80
2024/01/04 08:54:23;;;;;;;0.60;0.60;;;;;;;15.54;68.08;99196.81;5072818;28;20205;-80
2024/01/04 08:56:49;;;;;;;0.60;0.60;;;;;;;15.70;66.65;99189.53;5068605;28;20201;-80
2024/01/04 08:59:18;;;;;;;0.98;0.98;;;;;;;15.91;65.88;99190.88;5072935;28;20213;-80
2024/01/04 09:01:44;;;;;;;1.33;1.33;;;;;;;15.92;66.43;99180.34;5072712;28;20211;-80
2024/01/04 09:04:11;;;;;;;0.60;0.60;;;;;;;16.14;64.02;99179.00;5072283;28;20211;-77
2024/01/04 09:06:39;;;;;;;1.27;1.10;;;;;;;16.31;63.36;99189.09;5071706;28;20206;-77
2024/01/04 09:09:07;;;;;;;0.50;0.50;;;;;;;16.47;63.67;99168.69;5072090;28;20195;-78
2024/01/04 09:11:40;;;;;;;0.70;0.70;;;;;;;16.36;61.86;99140.16;5068520;28;20322;-79
2024/01/04 09:14:07;;;;;;;0.60;0.60;;;;;;;16.53;62.11;99163.28;5054781;28;20310;-79
2024/01/04 09:16:35;;;;;;;0.60;0.60;;;;;;;16.41;61.47;99119.13;5070718;28;20234;-78
2024/01/04 09:19:02;;;;;;;0.90;0.90;;;;;;;16.53;62.17;99147.59;5036897;28;20207;-78
2024/01/04 09:21:29;;;;;;;0.60;0.60;;;;;;;16.55;62.84;99143.19;5072257;28;20235;-78
2024/01/04 09:23:55;;;;;;;0.70;0.70;;;;;;;16.66;61.76;99136.81;5072071;28;20194;-79
2024/01/04 09:26:22;;;;;;;0.80;0.80;;;;;;;16.51;61.31;99116.25;5071844;28;20198;-79
2024/01/04 09:28:49;;;;;;;1.05;0.95;;;;;;;16.78;61.53;99136.53;5071821;28;20194;-79
2024/01/04 09:31:16;;;;;;;0.70;0.70;;;;;;;16.85;61.16;99138.09;5071770;28;20226;-79
2024/01/04 09:33:44;;;;;;;1.05;1.05;;;;;;;16.93;61.72;99143.13;5071694;28;20233;-79
2024/01/04 09:36:11;;;;;;;0.80;0.80;;;;;;;16.89;61.40;99145.84;5071955;28;20238;-78
2024/01/04 09:38:39;;;;;;;0.90;0.90;;;;;;;16.81;61.54;99148.66;5071721;28;20244;-79
2024/01/04 09:41:17;;;;;;;0.60;0.60;;;;;;;16.65;61.77;99131.63;5071822;28;20195;-79
2024/01/04 09:43:44;;;;;;;0.80;0.80;;;;;;;16.50;62.66;99142.44;5071491;28;20577;-81
2024/01/04 09:46:18;;;;;;;0.60;0.60;;;;;;;16.67;62.79;99142.91;5071773;28;20583;-77
2024/01/04 09:48:53;;;;;;;0.77;0.77;;;;;;;16.63;62.10;99139.50;5071568;28;20225;-77
2024/01/04 09:51:20;;;;;;;0.63;0.63;;;;;;;16.32;63.12;99097.50;5053385;28;20735;-78
2024/01/04 09:53:48;;;;;;;1.50;1.50;;;;;;;16.54;64.02;99123.16;5070759;28;20626;-77
2024/01/04 09:56:16;;;;;;;0.60;0.60;;;;;;;16.78;63.33;99126.06;5071708;28;20203;-77
2024/01/04 09:58:43;;;;;;;1.13;1.13;;;;;;;16.85;63.11;99124.13;5071301;28;20637;-77
2024/01/04 10:01:12;;;;;;;0.95;0.95;;;;;;;16.95;62.59;99106.41;5036386;28;20206;-77
2024/01/04 10:03:44;;;;;;;0.80;0.80;;;;;;;16.92;63.86;99109.97;5071522;28;20210;-77
2024/01/04 10:06:13;;;;;;;0.60;0.60;;;;;;;17.04;63.12;99114.91;5071572;28;20205;-76
2024/01/04 10:08:43;;;;;;;0.80;0.80;;;;;;;17.12;65.12;99106.84;5071304;28;20627;-77
2024/01/04 10:11:19;;;;;;;0.88;0.88;;;;;;;16.61;63.27;99025.31;5071113;28;20276;-77
2024/01/04 10:13:46;;;;;;;0.85;0.85;;;;;;;16.90;64.93;99077.75;5035785;28;20191;-77
2024/01/04 10:16:13;;;;;;;0.80;0.80;;;;;;;17.03;65.59;99087.00;5071063;28;20202;-76
2024/01/04 10:18:40;;;;;;;1.20;1.08;;;;;;;16.98;65.06;99088.88;5071148;28;20229;-77
2024/01/04 10:21:08;;;;;;;1.08;1.08;;;;;;;17.14;64.42;99084.94;5070917;28;20199;-76
2024/01/04 10:23:36;;;;;;;0.77;0.77;;;;;;;17.01;62.98;99057.38;5071030;28;20654;-76
2024/01/04 10:26:08;;;;;;;1.45;1.40;;;;;;;17.28;62.05;99068.84;5071223;28;20302;-76
2024/01/04 10:28:38;;;;;;;0.82;0.82;;;;;;;17.46;59.70;99049.09;5071052;28;20194;-76
2024/01/04 10:31:06;;;;;;;2.17;2.05;;;;;;;17.67;59.25;99058.97;5070702;28;20344;-77
2024/01/04 10:33:33;;;;;;;1.17;1.08;;;;;;;17.64;58.13;99059.94;5070753;28;20264;-76
2024/01/04 10:36:08;;;;;;;1.45;1.35;;;;;;;17.44;56.77;99030.81;5071056;28;20234;-76
2024/01/04 10:38:37;;;;;;;0.60;0.60;;;;;;;17.52;57.04;99039.28;5071010;28;20195;-82
2024/01/04 10:41:04;;;;;;;0.60;0.60;;;;;;;17.29;56.40;99039.13;5035985;28;20674;-80
2024/01/04 10:43:31;;;;;;;1.05;1.05;;;;;;;17.42;55.99;99031.75;5071213;28;20210;-72
2024/01/04 10:46:03;;;;;;;1.75;1.25;;;;;;;17.34;55.92;99014.50;5070525;28;20203;-73
2024/01/04 10:48:30;;;;;;;6.15;1.65;;;;;;;17.35;55.38;99008.34;5070440;28;20230;-72
2024/01/04 10:51:02;;;;;;;1.45;1.42;;;;;;;17.70;54.62;99027.44;5070285;28;20258;-71
2024/01/04 10:53:32;;;;;;;0.80;0.80;;;;;;;17.86;54.33;99018.19;5070446;28;20234;-72
2024/01/04 10:56:03;;;;;;;0.80;0.80;;;;;;;17.91;53.59;99011.03;5008605;28;20298;-71
2024/01/04 10:58:31;;;;;;;0.63;0.63;;;;;;;18.10;53.66;99011.28;5008571;28;20735;-72
2024/01/04 11:00:58;;;;;;;0.60;0.60;;;;;;;18.18;53.26;99009.28;5008722;28;20196;-72
2024/01/04 11:03:27;;;;;;;0.93;0.93;;;;;;;18.53;53.11;99000.25;5008583;28;20213;-76
2024/01/04 11:05:54;;;;;;;0.70;0.70;;;;;;;18.73;53.36;98988.13;5012330;28;20315;-75
2024/01/04 11:08:25;;;;;;;0.75;0.75;;;;;;;18.88;52.57;98994.63;5012869;28;20205;-75
2024/01/04 11:10:53;;;;;;;0.80;0.80;;;;;;;19.04;53.47;98997.56;5012978;28;20243;-76
2024/01/04 11:13:21;;;;;;;1.00;1.00;;;;;;;19.22;52.91;98995.13;5022991;28;20199;-75
2024/01/04 11:15:51;;;;;;;1.08;1.08;;;;;;;19.29;53.05;98990.47;5074801;28;20198;-78
2024/01/04 11:18:35;;;;;;;0.85;0.85;;;;;;;19.50;52.13;98978.31;5075118;28;20198;-78
2024/01/04 11:21:20;;;;;;;0.73;0.73;;;;;;;19.43;51.44;98984.72;5074561;28;20213;-78
2024/01/04 11:24:01;;;;;;;0.80;0.80;;;;;;;19.31;52.26;98996.53;5074950;28;20592;-81
2024/01/04 11:26:35;;;;;;;0.70;0.70;;;;;;;18.98;51.42;98982.88;5074775;28;20670;-80
2024/01/04 11:29:08;;;;;;;0.80;0.80;;;;;;;18.86;51.39;98985.94;5074883;28;20198;-79
2024/01/04 11:31:42;;;;;;;1.10;1.10;;;;;;;18.84;51.73;98974.63;5075176;28;20317;-80